Cherry Valley, IL (61016)

10:43 PM CDT on August 30, 2016 (GMT -0500)
Valley View | | Change Station

Elev 778 ft 42.22 °N, 88.97 °W | Updated 7 minutes ago

Overcast
Overcast
70.2 °F
Feels Like 70.2 °F
N
0.0
Wind Variable Wind from West

Today
High -- | Low -- °F
--% Chance of Precip.
Yesterday
High -- | Low -- °F
Precip. -- in
Pressure 30.08 in
Visibility 10.0 miles
Clouds Overcast 16000 ft
Dew Point 70 °F
Humidity 98%
Rainfall 0.13 in
Snow Depth Not available.
6:19 AM 7:32 PM
Waning Crescent, 2% visible
METAR KRFD 310254Z 00000KT 10SM OVC160 22/21 A3009 RMK AO2 SLP184 T02220206 53007
Pressure 30.08 in
Visibility 10.0 miles
Clouds Overcast 16000 ft
Dew Point 70 °F
Humidity 98%
Rainfall 0.13 in
Snow Depth Not available.
6:19 AM 7:32 PM
Waning Crescent, 2% visible
METAR KRFD 310254Z 00000KT 10SM OVC160 22/21 A3009 RMK AO2 SLP184 T02220206 53007

10-Day Weather Forecast

Almanac

Astronomy

Aug. 30, 2016 Rise Set
Actual Time
Civil Twilight
Nautical Twilight
Astronomical Twilight
Moon
Length of Visible Light
Length of Day
Tomorrow will be .
, % of the Moon is Illuminated

Today's Extremes

State Highs State Lows

Community

WunderPhotos

Upload Photos

1,936,021 photos uploaded!

WunderBlog® & News

Nearby

Air Quality

  Air Quality AQ Index Pollutant
Not available.

Snow Depth

Station Depth Elevation

Earthquake Activity

City Distance Mag. Time & Date
Minimum magnitude displayed is 2.5.

Coastal Water Temperatures

Place Temperature

Stations

Nearby Weather Stations

Station Location Temp. Windchill Dew Point Humidity Wind Precip. Elev Updated Type
                   

Watches & Warnings

There are currently no watches in effect.